Time;durP1;ratioP1;P1;durP2;ratioP2;P2;SDS_P1;SDS_P2;PMS_P1;PMS_P2;Temp;Humidity;BMP_temperature;BMP_pressure;BME280_temperature;BME280_humidity;BME280_pressure;Samples;Min_cycle;Max_cycle;Signal;HPM_P1;HPM_P2
2023/04/24 00:00:09;;;;;;;4.07;3.77;;;11.30;99.90;;;;;;5093047;28;20649;-75
2023/04/24 00:02:39;;;;;;;4.17;3.50;;;11.30;99.90;;;;;;5093001;28;20222;-75
2023/04/24 00:05:06;;;;;;;4.23;3.93;;;11.30;99.90;;;;;;5112444;28;20591;-76
2023/04/24 00:07:32;;;;;;;4.50;4.20;;;11.30;99.90;;;;;;5113107;28;20209;-75
2023/04/24 00:09:58;;;;;;;6.60;3.77;;;11.20;99.90;;;;;;5112848;28;20215;-75
2023/04/24 00:12:24;;;;;;;4.63;4.33;;;11.20;99.90;;;;;;5112435;28;20185;-75
2023/04/24 00:14:50;;;;;;;3.90;3.60;;;11.10;99.90;;;;;;5095465;28;20205;-74
2023/04/24 00:17:19;;;;;;;4.07;3.77;;;11.10;99.90;;;;;;5092675;28;20167;-75
2023/04/24 00:19:46;;;;;;;4.27;3.87;;;11.10;99.90;;;;;;5074115;28;20182;-75
2023/04/24 00:22:13;;;;;;;4.03;3.73;;;11.10;99.90;;;;;;5092541;28;20193;-74
2023/04/24 00:24:39;;;;;;;4.07;3.77;;;11.20;99.90;;;;;;5090039;28;20188;-76
2023/04/24 00:27:05;;;;;;;4.03;3.73;;;11.00;99.90;;;;;;5094123;28;20793;-75
2023/04/24 00:29:30;;;;;;;4.13;3.83;;;11.10;99.90;;;;;;5112592;28;20207;-76
2023/04/24 00:31:57;;;;;;;3.60;3.40;;;11.10;99.90;;;;;;5112520;28;20184;-76
2023/04/24 00:34:22;;;;;;;4.27;3.87;;;11.10;99.90;;;;;;5098976;28;20181;-75
2023/04/24 00:36:52;;;;;;;3.97;3.67;;;11.10;99.90;;;;;;5092065;28;20185;-76
2023/04/24 00:39:20;;;;;;;4.60;4.30;;;11.10;99.90;;;;;;5092301;28;20174;-77
2023/04/24 00:41:47;;;;;;;3.97;3.77;;;11.00;99.90;;;;;;5092237;28;20175;-75
2023/04/24 00:44:14;;;;;;;3.70;3.50;;;10.90;99.90;;;;;;5092051;28;20257;-75
2023/04/24 00:46:40;;;;;;;4.30;3.83;;;10.90;99.90;;;;;;5073668;28;20229;-76
2023/04/24 00:49:06;;;;;;;3.80;3.50;;;10.90;99.90;;;;;;5091937;28;20225;-76
2023/04/24 00:51:36;;;;;;;3.67;3.37;;;10.90;99.90;;;;;;5092052;28;20202;-75
2023/04/24 00:54:02;;;;;;;3.97;3.67;;;10.90;99.90;;;;;;5102805;28;20204;-74
2023/04/24 00:56:28;;;;;;;4.40;4.10;;;11.00;99.90;;;;;;5112239;28;20636;-75
2023/04/24 00:58:55;;;;;;;4.77;4.23;;;11.00;99.90;;;;;;5112154;28;20182;-78
2023/04/24 01:01:21;;;;;;;4.30;4.00;;;11.00;99.90;;;;;;5094300;28;20276;-77
2023/04/24 01:03:50;;;;;;;3.83;3.63;;;11.00;99.90;;;;;;5091558;28;20189;-74
2023/04/24 01:06:18;;;;;;;3.90;3.60;;;11.10;99.90;;;;;;5091741;28;20204;-76
2023/04/24 01:08:44;;;;;;;4.10;3.70;;;11.00;99.90;;;;;;5091663;28;20205;-76
2023/04/24 01:11:11;;;;;;;3.20;3.00;;;11.00;99.90;;;;;;5091936;28;20186;-74
2023/04/24 01:13:36;;;;;;;4.30;3.90;;;10.90;99.90;;;;;;5098998;28;20177;-75
2023/04/24 01:16:02;;;;;;;4.60;3.73;;;10.90;99.90;;;;;;5108918;28;20530;-77
2023/04/24 01:18:28;;;;;;;4.23;3.93;;;10.80;99.90;;;;;;5090011;28;20205;-76
2023/04/24 01:21:02;;;;;;;4.33;4.03;;;10.80;99.90;;;;;;5092139;28;20269;-76
2023/04/24 01:23:28;;;;;;;4.27;3.97;;;10.90;99.90;;;;;;5094097;28;20210;-76
2023/04/24 01:25:54;;;;;;;4.40;4.10;;;10.90;99.90;;;;;;5095798;28;20620;-77
2023/04/24 01:28:20;;;;;;;4.90;4.50;;;10.80;99.90;;;;;;5096046;28;20197;-75
2023/04/24 01:30:46;;;;;;;4.70;4.30;;;10.80;99.90;;;;;;5095865;28;20189;-74
2023/04/24 01:33:12;;;;;;;4.80;4.40;;;10.80;99.90;;;;;;5100120;28;20180;-74
2023/04/24 01:35:38;;;;;;;4.90;4.50;;;10.70;99.90;;;;;;5117864;28;20199;-75
2023/04/24 01:38:05;;;;;;;4.77;4.37;;;10.80;99.90;;;;;;5117330;28;20212;-77
2023/04/24 01:40:32;;;;;;;5.07;4.63;;;10.80;99.90;;;;;;5116725;28;20706;-75
2023/04/24 01:43:00;;;;;;;4.97;4.50;;;10.80;99.90;;;;;;5096122;28;20176;-76
2023/04/24 01:45:26;;;;;;;5.37;4.87;;;10.80;99.90;;;;;;5095401;28;20214;-76
2023/04/24 01:47:52;;;;;;;4.77;4.27;;;10.80;99.90;;;;;;5095375;28;20717;-75
2023/04/24 01:50:18;;;;;;;5.10;4.70;;;10.80;99.90;;;;;;5077029;28;20640;-77
2023/04/24 01:52:44;;;;;;;4.97;4.57;;;10.80;99.90;;;;;;5095375;28;20183;-76
2023/04/24 01:55:10;;;;;;;4.70;4.40;;;10.70;99.90;;;;;;5115604;28;20174;-75
2023/04/24 01:57:36;;;;;;;4.53;4.23;;;10.80;99.90;;;;;;5097235;28;20190;-76
2023/04/24 02:00:04;;;;;;;4.80;4.40;;;10.80;99.90;;;;;;5115491;28;20546;-75
2023/04/24 02:02:30;;;;;;;4.90;4.50;;;10.70;99.90;;;;;;5115561;28;20171;-76
2023/04/24 02:04:56;;;;;;;4.60;4.20;;;10.70;99.90;;;;;;5096956;28;20197;-76
2023/04/24 02:07:23;;;;;;;5.70;4.23;;;10.80;99.90;;;;;;5076853;28;20255;-77
2023/04/24 02:09:49;;;;;;;4.10;3.90;;;10.80;99.90;;;;;;5094960;28;20174;-76
2023/04/24 02:12:17;;;;;;;4.20;3.90;;;10.80;99.90;;;;;;5095011;28;20181;-75
2023/04/24 02:14:44;;;;;;;4.10;3.80;;;10.80;99.90;;;;;;5107712;28;20214;-74
2023/04/24 02:17:13;;;;;;;4.70;4.00;;;10.90;99.90;;;;;;5092902;28;20198;-75
2023/04/24 02:19:39;;;;;;;3.70;3.50;;;10.80;99.90;;;;;;5094197;28;20643;-75
2023/04/24 02:22:04;;;;;;;3.70;3.50;;;10.90;99.90;;;;;;5094784;28;20214;-76
2023/04/24 02:24:30;;;;;;;3.50;3.30;;;10.90;99.90;;;;;;5094652;28;20180;-76
2023/04/24 02:26:56;;;;;;;4.07;3.73;;;11.00;99.90;;;;;;5094474;28;20768;-75
2023/04/24 02:29:22;;;;;;;3.97;3.60;;;10.90;99.90;;;;;;5094433;28;20178;-74
2023/04/24 02:31:48;;;;;;;4.20;3.90;;;10.90;99.90;;;;;;5076480;28;20178;-75
2023/04/24 02:34:14;;;;;;;4.50;4.17;;;10.80;99.90;;;;;;5087988;28;20187;-76
2023/04/24 02:36:40;;;;;;;4.70;4.30;;;10.90;99.90;;;;;;5096610;28;20210;-76
2023/04/24 02:39:06;;;;;;;5.50;4.77;;;10.80;99.90;;;;;;5115081;28;20209;-74
2023/04/24 02:41:32;;;;;;;4.73;4.33;;;10.70;99.90;;;;;;5115061;28;20182;-75
2023/04/24 02:43:58;;;;;;;4.67;4.27;;;10.70;99.90;;;;;;5104484;28;20189;-75
2023/04/24 02:46:25;;;;;;;4.83;4.43;;;10.70;99.90;;;;;;5094266;28;20270;-75
2023/04/24 02:48:51;;;;;;;5.30;4.80;;;10.60;99.90;;;;;;5075887;28;20666;-75
2023/04/24 02:51:16;;;;;;;5.23;4.73;;;10.60;99.90;;;;;;5094285;28;20258;-76
2023/04/24 02:53:42;;;;;;;5.57;4.90;;;10.70;99.90;;;;;;5102416;28;20205;-75
2023/04/24 02:56:08;;;;;;;5.40;4.77;;;10.70;99.90;;;;;;5114943;28;20198;-75
2023/04/24 02:58:35;;;;;;;5.83;4.67;;;10.60;99.90;;;;;;5096543;28;20207;-75
2023/04/24 03:01:01;;;;;;;4.70;4.33;;;10.60;99.90;;;;;;5102336;28;20551;-76
2023/04/24 03:03:26;;;;;;;5.40;4.90;;;10.50;99.90;;;;;;5099880;28;20219;-77
2023/04/24 03:05:52;;;;;;;6.37;4.90;;;10.50;99.90;;;;;;5114382;28;20244;-74
2023/04/24 03:08:18;;;;;;;5.90;5.30;;;10.50;99.90;;;;;;5114527;28;20636;-77
2023/04/24 03:10:44;;;;;;;5.20;4.80;;;10.50;99.90;;;;;;5114469;28;20170;-76
2023/04/24 03:13:09;;;;;;;5.47;4.97;;;10.40;99.90;;;;;;5114287;28;20236;-75
2023/04/24 03:15:35;;;;;;;5.23;4.83;;;10.40;99.90;;;;;;5114292;28;20175;-76
2023/04/24 03:18:02;;;;;;;6.20;5.60;;;10.50;99.90;;;;;;5114047;28;20186;-74
2023/04/24 03:20:28;;;;;;;5.83;5.33;;;10.50;99.90;;;;;;5114676;28;20201;-75
2023/04/24 03:22:54;;;;;;;5.60;5.10;;;10.50;99.90;;;;;;5113024;28;20174;-76
2023/04/24 03:25:20;;;;;;;5.97;5.00;;;10.50;99.90;;;;;;5093901;28;20188;-77
2023/04/24 03:27:46;;;;;;;6.67;5.40;;;10.50;99.90;;;;;;5093510;28;20691;-76
2023/04/24 03:30:12;;;;;;;5.40;4.90;;;10.50;99.90;;;;;;5093330;28;20549;-76
2023/04/24 03:32:39;;;;;;;6.87;5.87;;;10.50;99.90;;;;;;5093639;28;20712;-76
2023/04/24 03:35:07;;;;;;;5.60;5.10;;;10.50;99.90;;;;;;5093706;28;20169;-74
2023/04/24 03:37:33;;;;;;;5.03;4.57;;;10.60;99.90;;;;;;5094752;28;20200;-75
2023/04/24 03:39:59;;;;;;;4.93;4.53;;;10.60;99.90;;;;;;5094572;28;20263;-74
2023/04/24 03:42:24;;;;;;;5.10;4.70;;;10.50;99.90;;;;;;5095051;28;20172;-74
2023/04/24 03:44:50;;;;;;;5.13;4.63;;;10.50;99.90;;;;;;5093349;28;20319;-77
2023/04/24 03:47:16;;;;;;;4.93;4.53;;;10.60;99.90;;;;;;5092652;28;20232;-76
2023/04/24 03:49:42;;;;;;;5.27;4.70;;;10.60;99.90;;;;;;5093518;28;20527;-74
2023/04/24 03:52:07;;;;;;;4.93;4.43;;;10.50;99.90;;;;;;5075334;28;20179;-75
2023/04/24 03:54:33;;;;;;;4.50;4.20;;;10.50;99.90;;;;;;5089590;28;20277;-75
2023/04/24 03:56:59;;;;;;;4.73;4.23;;;10.40;99.90;;;;;;5095380;28;20178;-75
2023/04/24 03:59:25;;;;;;;5.20;3.73;;;10.40;99.90;;;;;;5094970;28;20180;-76
2023/04/24 04:01:51;;;;;;;3.93;3.63;;;10.40;99.90;;;;;;5113711;28;20647;-75
2023/04/24 04:04:17;;;;;;;4.27;3.87;;;10.50;99.90;;;;;;5100778;28;20206;-75
2023/04/24 04:06:44;;;;;;;4.20;3.90;;;10.50;99.90;;;;;;5093115;28;20219;-75
2023/04/24 04:09:10;;;;;;;4.03;3.63;;;10.60;99.90;;;;;;5092629;28;20661;-75
2023/04/24 04:11:36;;;;;;;3.60;3.30;;;10.60;99.90;;;;;;5093211;28;20175;-76
2023/04/24 04:14:02;;;;;;;4.37;3.70;;;10.60;99.90;;;;;;5103769;28;20179;-77
2023/04/24 04:16:27;;;;;;;4.33;4.03;;;10.60;99.90;;;;;;5113665;28;20649;-75
2023/04/24 04:18:53;;;;;;;4.63;3.70;;;10.70;99.90;;;;;;5113123;28;20178;-76
2023/04/24 04:21:19;;;;;;;4.47;4.07;;;10.70;99.90;;;;;;5113156;28;20351;-76
2023/04/24 04:23:45;;;;;;;4.13;3.83;;;10.70;99.90;;;;;;5104622;28;20212;-77
2023/04/24 04:26:12;;;;;;;8.03;6.23;;;10.70;99.90;;;;;;5092480;28;20205;-75
2023/04/24 04:28:39;;;;;;;4.13;3.83;;;10.80;99.90;;;;;;5074409;28;20198;-75
2023/04/24 04:31:07;;;;;;;4.23;3.90;;;10.80;99.90;;;;;;5093054;28;20925;-77
2023/04/24 04:33:33;;;;;;;5.97;4.17;;;10.80;99.90;;;;;;5099456;28;20557;-75
2023/04/24 04:35:59;;;;;;;4.93;4.47;;;10.70;99.90;;;;;;5112875;28;20658;-75
2023/04/24 04:38:29;;;;;;;4.67;4.27;;;10.60;99.90;;;;;;5094331;28;20186;-77
2023/04/24 04:40:58;;;;;;;4.43;4.03;;;10.70;99.90;;;;;;5113818;28;20175;-76
2023/04/24 04:43:24;;;;;;;5.30;4.30;;;10.70;99.90;;;;;;5113485;28;20184;-76
2023/04/24 04:45:51;;;;;;;4.23;3.93;;;10.70;99.90;;;;;;5112311;28;20227;-76
2023/04/24 04:48:18;;;;;;;4.43;4.10;;;10.80;99.90;;;;;;5112777;28;20180;-77
2023/04/24 04:50:44;;;;;;;4.63;4.23;;;10.80;99.90;;;;;;5112391;28;20225;-77
2023/04/24 04:53:10;;;;;;;5.17;4.50;;;10.80;99.90;;;;;;5109067;28;20229;-74
2023/04/24 04:55:36;;;;;;;7.00;4.80;;;10.80;99.90;;;;;;5092402;28;20583;-77
2023/04/24 04:58:02;;;;;;;5.37;4.87;;;10.90;99.90;;;;;;5092039;28;20232;-77
2023/04/24 05:00:33;;;;;;;4.73;4.33;;;11.00;99.90;;;;;;5091903;28;20627;-76
2023/04/24 05:02:59;;;;;;;5.43;4.93;;;10.90;99.90;;;;;;5094365;28;20172;-76
2023/04/24 05:05:25;;;;;;;5.07;4.60;;;11.00;99.90;;;;;;5112778;28;20282;-74
2023/04/24 05:07:50;;;;;;;5.77;4.20;;;11.00;99.90;;;;;;5112745;28;20190;-74
2023/04/24 05:10:16;;;;;;;5.03;4.63;;;11.00;99.90;;;;;;5112106;28;20177;-77
2023/04/24 05:12:42;;;;;;;5.20;4.70;;;11.10;99.90;;;;;;5112195;28;20177;-76
2023/04/24 05:15:08;;;;;;;6.20;4.80;;;11.10;99.90;;;;;;5092485;28;20239;-75
2023/04/24 05:17:34;;;;;;;7.20;4.80;;;11.10;99.90;;;;;;5092074;28;20208;-76
2023/04/24 05:20:00;;;;;;;4.43;4.13;;;11.10;99.90;;;;;;5091761;28;20202;-75
2023/04/24 05:22:26;;;;;;;5.40;4.37;;;11.00;99.90;;;;;;5091910;28;20232;-76
2023/04/24 05:24:52;;;;;;;5.03;4.53;;;10.90;99.90;;;;;;5109652;28;20186;-77
2023/04/24 05:27:17;;;;;;;5.03;4.63;;;10.90;99.90;;;;;;5094086;28;20607;-75
2023/04/24 05:29:43;;;;;;;4.90;4.40;;;11.00;99.90;;;;;;5112024;28;20165;-76
2023/04/24 05:32:09;;;;;;;5.23;4.47;;;11.00;99.90;;;;;;5112300;28;20172;-77
2023/04/24 05:34:35;;;;;;;6.27;5.67;;;11.10;99.90;;;;;;5096726;28;20540;-76
2023/04/24 05:37:01;;;;;;;6.07;5.30;;;11.10;99.90;;;;;;5073537;28;20263;-77
2023/04/24 05:39:27;;;;;;;7.33;5.83;;;11.10;99.90;;;;;;5091819;28;20197;-76
2023/04/24 05:41:52;;;;;;;6.53;5.83;;;11.10;99.90;;;;;;5073346;28;20191;-74
2023/04/24 05:44:18;;;;;;;6.77;5.50;;;11.20;99.90;;;;;;5105073;28;20172;-75
2023/04/24 05:46:44;;;;;;;7.20;5.80;;;11.30;99.90;;;;;;5112498;28;20259;-76
2023/04/24 05:49:10;;;;;;;6.73;6.00;;;11.30;99.90;;;;;;5112751;28;20170;-76
2023/04/24 05:51:35;;;;;;;6.70;5.97;;;11.40;99.90;;;;;;5098505;28;20223;-76
2023/04/24 05:54:02;;;;;;;7.80;5.97;;;11.40;99.90;;;;;;5087850;28;20262;-75
2023/04/24 05:56:29;;;;;;;6.70;6.07;;;11.40;99.90;;;;;;5073864;28;20182;-76
2023/04/24 05:58:55;;;;;;;6.47;5.80;;;11.50;99.90;;;;;;5091365;28;20211;-75
2023/04/24 06:01:21;;;;;;;8.63;6.23;;;11.60;99.90;;;;;;5091676;28;20181;-75
2023/04/24 06:03:47;;;;;;;8.50;6.30;;;11.80;99.90;;;;;;5083135;28;20191;-77
2023/04/24 06:06:13;;;;;;;8.63;5.87;;;12.00;99.90;;;;;;5094243;28;20598;-76
2023/04/24 06:08:38;;;;;;;6.33;5.73;;;12.10;99.90;;;;;;5112190;28;20201;-75
2023/04/24 06:11:04;;;;;;;6.50;5.90;;;12.30;99.90;;;;;;5115139;28;20264;-77
2023/04/24 06:13:30;;;;;;;6.47;5.87;;;12.30;99.90;;;;;;5109561;28;20182;-75
2023/04/24 06:15:56;;;;;;;7.57;6.00;;;12.50;99.90;;;;;;5095664;28;20580;-76
2023/04/24 06:18:21;;;;;;;9.27;5.60;;;12.60;99.90;;;;;;5095283;28;20671;-75
2023/04/24 06:20:47;;;;;;;6.10;5.50;;;12.70;99.90;;;;;;5076836;28;20208;-76
2023/04/24 06:23:13;;;;;;;7.80;6.37;;;12.90;99.90;;;;;;5081108;28;20534;-76
2023/04/24 06:25:40;;;;;;;8.87;5.27;;;13.00;99.90;;;;;;5096857;28;20599;-75
2023/04/24 06:28:06;;;;;;;6.83;5.47;;;13.10;99.90;;;;;;5097182;28;20182;-78
2023/04/24 06:30:32;;;;;;;7.30;5.27;;;13.40;99.90;;;;;;5097102;28;20298;-75
2023/04/24 06:32:58;;;;;;;5.87;5.37;;;13.60;99.90;;;;;;5113439;28;20224;-77
2023/04/24 06:35:23;;;;;;;5.53;5.03;;;13.90;99.90;;;;;;5094974;28;20205;-77
2023/04/24 06:37:50;;;;;;;6.73;5.27;;;14.10;99.90;;;;;;5076698;28;20174;-75
2023/04/24 06:40:18;;;;;;;6.70;6.10;;;14.50;99.90;;;;;;5076481;28;20179;-75
2023/04/24 06:42:44;;;;;;;6.20;4.80;;;14.70;99.90;;;;;;5076471;28;20240;-76
2023/04/24 06:45:11;;;;;;;5.23;4.83;;;15.00;99.90;;;;;;5096727;28;20222;-76
2023/04/24 06:47:37;;;;;;;5.73;5.30;;;15.10;99.90;;;;;;5096542;28;20624;-75
2023/04/24 06:50:04;;;;;;;5.70;5.17;;;15.10;99.90;;;;;;5114775;28;20201;-74
2023/04/24 06:52:32;;;;;;;5.70;5.20;;;14.90;99.90;;;;;;5096577;28;20217;-75
2023/04/24 06:55:02;;;;;;;7.30;5.53;;;14.80;99.90;;;;;;5077856;28;20210;-74
2023/04/24 06:57:29;;;;;;;5.87;5.37;;;14.80;99.90;;;;;;5093954;28;20179;-75
2023/04/24 06:59:55;;;;;;;5.53;5.03;;;14.90;99.90;;;;;;5094334;28;20285;-75
2023/04/24 07:02:21;;;;;;;7.67;5.57;;;14.90;99.90;;;;;;5094329;28;20174;-74
2023/04/24 07:04:47;;;;;;;5.53;5.07;;;15.00;99.90;;;;;;5111389;28;20256;-74
2023/04/24 07:07:14;;;;;;;5.90;5.30;;;14.90;99.90;;;;;;5114833;28;20736;-74
2023/04/24 07:09:44;;;;;;;5.70;5.10;;;14.80;99.90;;;;;;5114066;28;20509;-74
2023/04/24 07:12:10;;;;;;;8.00;5.40;;;14.70;99.90;;;;;;5095851;28;20673;-75
2023/04/24 07:14:37;;;;;;;7.03;4.87;;;14.60;99.90;;;;;;5114587;28;20220;-76
2023/04/24 07:17:04;;;;;;;7.17;5.60;;;14.50;99.90;;;;;;5114707;28;20656;-75
2023/04/24 07:19:30;;;;;;;7.70;5.80;;;14.50;99.90;;;;;;5114606;28;20173;-75
2023/04/24 07:21:58;;;;;;;7.87;6.27;;;14.40;99.90;;;;;;5114457;28;20179;-77
2023/04/24 07:24:24;;;;;;;6.43;5.83;;;14.30;99.90;;;;;;5100563;28;20680;-75
2023/04/24 07:26:51;;;;;;;9.63;6.40;;;14.30;99.90;;;;;;5093873;28;20201;-78
2023/04/24 07:29:17;;;;;;;6.77;6.00;;;14.20;99.90;;;;;;5093881;28;20626;-76
2023/04/24 07:31:43;;;;;;;11.23;6.30;;;14.00;99.90;;;;;;5094137;28;20538;-76
2023/04/24 07:34:09;;;;;;;7.40;6.20;;;13.90;99.90;;;;;;5104415;28;20170;-74
2023/04/24 07:36:35;;;;;;;7.03;6.33;;;13.90;99.90;;;;;;5114573;28;20578;-76
2023/04/24 07:39:01;;;;;;;7.27;6.47;;;13.90;99.90;;;;;;5096971;28;20797;-75
2023/04/24 07:41:27;;;;;;;10.30;6.33;;;13.80;99.90;;;;;;5113971;28;20256;-75
2023/04/24 07:43:53;;;;;;;7.13;6.43;;;13.80;99.90;;;;;;5095220;28;20166;-75
2023/04/24 07:46:20;;;;;;;8.17;6.30;;;13.70;99.90;;;;;;5113605;28;20228;-74
2023/04/24 07:48:47;;;;;;;6.97;6.37;;;13.70;99.90;;;;;;5096378;28;20174;-77
2023/04/24 07:51:14;;;;;;;6.93;6.20;;;13.60;99.90;;;;;;5114226;28;20174;-75
2023/04/24 07:53:40;;;;;;;7.57;6.87;;;13.60;99.90;;;;;;5088120;28;20574;-75
2023/04/24 07:56:06;;;;;;;7.93;7.00;;;13.60;99.90;;;;;;5075314;28;20550;-77
2023/04/24 07:58:32;;;;;;;9.87;6.83;;;13.50;99.90;;;;;;5093855;28;20176;-76
2023/04/24 08:00:57;;;;;;;11.17;6.80;;;13.50;99.90;;;;;;5096962;28;20181;-76
2023/04/24 08:03:24;;;;;;;8.70;6.80;;;13.60;99.90;;;;;;5080116;28;20632;-75
2023/04/24 08:05:50;;;;;;;7.73;6.93;;;13.60;99.90;;;;;;5113193;28;20282;-74
2023/04/24 08:08:16;;;;;;;7.13;6.20;;;13.60;99.90;;;;;;5095212;28;20180;-76
2023/04/24 08:10:42;;;;;;;9.43;7.30;;;13.60;99.90;;;;;;5113340;28;20173;-75
2023/04/24 08:13:08;;;;;;;7.23;6.53;;;13.60;99.90;;;;;;5109741;28;20186;-75
2023/04/24 08:15:34;;;;;;;8.03;6.93;;;13.60;99.90;;;;;;5092905;28;20198;-74
2023/04/24 08:18:00;;;;;;;8.43;6.73;;;13.60;99.90;;;;;;5074869;28;20190;-76
2023/04/24 08:20:26;;;;;;;10.90;6.87;;;13.70;99.90;;;;;;5074591;28;20288;-75
2023/04/24 08:22:52;;;;;;;7.20;6.50;;;13.70;99.90;;;;;;5075384;28;20277;-74
2023/04/24 08:25:19;;;;;;;9.13;7.27;;;13.60;99.90;;;;;;5113251;28;20649;-76
2023/04/24 08:27:44;;;;;;;7.37;6.60;;;13.70;99.90;;;;;;5094692;28;20216;-77
2023/04/24 08:30:10;;;;;;;8.30;6.33;;;13.70;99.90;;;;;;5112970;28;20565;-76
2023/04/24 08:32:37;;;;;;;8.20;6.67;;;13.80;99.90;;;;;;5112622;28;20181;-75
2023/04/24 08:35:03;;;;;;;6.33;5.73;;;13.80;99.90;;;;;;5093341;28;20178;-75
2023/04/24 08:37:29;;;;;;;7.33;6.57;;;13.80;99.90;;;;;;5092779;28;20193;-75
2023/04/24 08:39:54;;;;;;;10.73;7.07;;;13.80;99.90;;;;;;5092771;28;20631;-75
2023/04/24 08:42:21;;;;;;;8.70;6.93;;;13.80;99.90;;;;;;5092487;28;20228;-75
2023/04/24 08:44:49;;;;;;;10.20;7.10;;;13.70;99.90;;;;;;5109146;28;20188;-79
2023/04/24 08:47:15;;;;;;;8.10;7.13;;;13.70;99.90;;;;;;5112537;28;20229;-76
2023/04/24 08:49:42;;;;;;;8.67;7.37;;;13.70;99.90;;;;;;5112694;28;20174;-75
2023/04/24 08:52:08;;;;;;;8.93;8.03;;;13.70;99.90;;;;;;5094414;28;20570;-76
2023/04/24 08:54:35;;;;;;;9.67;7.30;;;13.70;99.90;;;;;;5097087;28;20192;-75
2023/04/24 08:57:03;;;;;;;9.70;7.33;;;13.70;99.90;;;;;;5074068;28;20189;-75
2023/04/24 08:59:30;;;;;;;11.97;8.73;;;13.70;99.90;;;;;;5092292;28;20185;-75
2023/04/24 09:01:57;;;;;;;12.30;8.33;;;13.70;99.90;;;;;;5092404;28;20272;-74
2023/04/24 09:04:24;;;;;;;8.27;7.43;;;13.70;99.90;;;;;;5087416;28;20185;-75
2023/04/24 09:06:54;;;;;;;10.40;7.40;;;13.70;99.90;;;;;;5112576;28;20212;-74
2023/04/24 09:09:21;;;;;;;6.37;5.70;;;13.60;99.90;;;;;;5112379;28;20168;-76
2023/04/24 09:11:48;;;;;;;5.43;4.93;;;13.60;99.90;;;;;;5113876;28;20653;-76
2023/04/24 09:14:14;;;;;;;6.87;4.80;;;13.50;99.90;;;;;;5099797;28;20182;-77
2023/04/24 09:16:41;;;;;;;4.53;4.23;;;13.40;99.90;;;;;;5092484;28;20162;-77
2023/04/24 09:19:07;;;;;;;4.13;3.83;;;13.20;99.90;;;;;;5093583;28;20171;-77
2023/04/24 09:21:34;;;;;;;6.20;4.33;;;13.10;99.90;;;;;;5096370;28;20184;-76
2023/04/24 09:24:07;;;;;;;3.87;3.20;;;13.00;99.90;;;;;;5103454;28;20189;-74
2023/04/24 09:26:35;;;;;;;3.63;3.30;;;12.90;99.90;;;;;;5112370;28;20234;-76
2023/04/24 09:29:01;;;;;;;3.63;3.43;;;12.80;99.90;;;;;;5112470;28;20171;-76
2023/04/24 09:31:29;;;;;;;4.17;3.43;;;12.80;99.90;;;;;;5112437;28;20184;-78
2023/04/24 09:34:05;;;;;;;4.00;3.07;;;12.80;99.90;;;;;;5102285;28;20210;-75
2023/04/24 09:36:42;;;;;;;3.13;2.93;;;12.70;99.90;;;;;;5073862;28;20220;-75
2023/04/24 09:39:15;;;;;;;3.27;2.83;;;12.70;99.90;;;;;;5091869;28;20158;-76
2023/04/24 09:41:51;;;;;;;2.93;2.73;;;12.50;99.90;;;;;;5092311;28;20177;-77
2023/04/24 09:44:20;;;;;;;2.80;2.57;;;12.50;99.90;;;;;;5086441;28;20195;-76
2023/04/24 09:46:59;;;;;;;2.70;2.50;;;12.50;99.90;;;;;;5116038;28;20225;-75
2023/04/24 09:49:26;;;;;;;2.30;2.20;;;12.50;99.90;;;;;;5116080;28;20162;-75
2023/04/24 09:52:01;;;;;;;2.10;2.00;;;12.70;99.90;;;;;;5116069;28;20178;-75
2023/04/24 09:54:27;;;;;;;1.80;1.70;;;12.90;99.90;;;;;;5101462;28;20197;-75
2023/04/24 09:56:54;;;;;;;2.53;2.33;;;13.10;99.90;;;;;;5077454;28;20172;-75
2023/04/24 09:59:20;;;;;;;1.73;1.63;;;13.00;99.90;;;;;;5095200;28;20638;-75
2023/04/24 10:01:48;;;;;;;2.13;2.00;;;13.20;99.90;;;;;;5096004;28;20181;-75
2023/04/24 10:04:20;;;;;;;3.03;1.83;;;13.30;99.90;;;;;;5108385;28;20176;-76
2023/04/24 10:06:48;;;;;;;1.63;1.53;;;13.70;99.90;;;;;;5118141;28;20276;-77
2023/04/24 10:09:15;;;;;;;1.90;1.80;;;14.00;99.90;;;;;;5117882;28;20704;-74
2023/04/24 10:11:46;;;;;;;2.20;2.00;;;14.00;99.90;;;;;;5098449;28;20265;-76
2023/04/24 10:14:23;;;;;;;2.20;2.10;;;14.00;99.90;;;;;;5103745;28;20178;-76
2023/04/24 10:16:50;;;;;;;2.07;1.97;;;14.30;99.90;;;;;;5077039;28;20174;-74
2023/04/24 10:19:18;;;;;;;2.00;1.90;;;14.30;99.90;;;;;;5095014;28;20179;-77
2023/04/24 10:21:47;;;;;;;1.90;1.80;;;14.40;99.90;;;;;;5076981;28;20678;-77
2023/04/24 10:24:17;;;;;;;1.80;1.70;;;14.50;99.90;;;;;;5107173;28;20272;-76
2023/04/24 10:26:45;;;;;;;1.73;1.63;;;14.40;99.90;;;;;;5096933;28;20756;-75
2023/04/24 10:29:12;;;;;;;1.90;1.80;;;14.60;99.90;;;;;;5115602;28;20185;-76
2023/04/24 10:31:39;;;;;;;1.77;1.67;;;14.70;99.90;;;;;;5115571;28;20260;-76
2023/04/24 10:34:06;;;;;;;2.10;2.00;;;14.60;99.90;;;;;;5115463;28;20707;-77
2023/04/24 10:36:34;;;;;;;1.70;1.70;;;14.80;99.90;;;;;;5115195;28;20265;-75
2023/04/24 10:39:03;;;;;;;2.23;1.80;;;14.70;99.90;;;;;;5115390;28;20194;-76
2023/04/24 10:41:31;;;;;;;2.30;2.20;;;14.70;99.90;;;;;;5115413;28;20172;-75
2023/04/24 10:44:06;;;;;;;1.87;1.67;;;15.00;99.90;;;;;;5104978;28;20549;-76
2023/04/24 10:46:32;;;;;;;3.20;1.80;;;15.30;99.90;;;;;;5076330;28;20264;-76
2023/04/24 10:48:58;;;;;;;1.83;1.70;;;15.30;99.90;;;;;;5076403;28;20596;-76
2023/04/24 10:51:42;;;;;;;1.60;1.50;;;15.40;99.90;;;;;;5094621;28;20257;-75
2023/04/24 10:54:24;;;;;;;1.67;1.57;;;15.40;99.90;;;;;;5087756;28;20213;-75
2023/04/24 10:56:51;;;;;;;1.87;1.77;;;15.50;99.90;;;;;;5114362;28;20172;-76
2023/04/24 10:59:27;;;;;;;1.70;1.70;;;15.40;99.90;;;;;;5113109;28;20180;-77
2023/04/24 11:01:57;;;;;;;1.67;1.67;;;15.60;99.90;;;;;;5097747;28;20177;-77
2023/04/24 11:04:31;;;;;;;1.37;1.37;;;15.60;99.90;;;;;;5093979;28;20179;-76
2023/04/24 11:06:57;;;;;;;1.40;1.40;;;15.50;99.90;;;;;;5093892;28;20206;-76
2023/04/24 11:09:27;;;;;;;1.30;1.20;;;15.60;99.90;;;;;;5093709;28;20178;-75
2023/04/24 11:12:07;;;;;;;1.30;1.30;;;15.50;99.90;;;;;;5094263;28;20202;-77
2023/04/24 11:14:55;;;;;;;1.50;1.50;;;15.70;99.90;;;;;;5109283;28;20189;-75
2023/04/24 11:17:31;;;;;;;1.60;1.50;;;16.00;99.90;;;;;;5114226;28;20323;-76
2023/04/24 11:20:12;;;;;;;1.40;1.40;;;16.30;99.90;;;;;;5114146;28;20195;-75
2023/04/24 11:22:42;;;;;;;1.47;1.43;;;16.30;99.90;;;;;;5114093;28;20162;-75
2023/04/24 11:25:11;;;;;;;2.00;1.80;;;16.20;99.90;;;;;;5094068;28;20183;-75
2023/04/24 11:27:45;;;;;;;1.40;1.30;;;16.40;99.90;;;;;;5093575;28;20206;-75
2023/04/24 11:30:11;;;;;;;1.27;1.27;;;16.40;99.90;;;;;;5093454;28;20569;-76
2023/04/24 11:32:39;;;;;;;0.93;0.93;;;16.20;99.90;;;;;;5093761;28;20186;-76
2023/04/24 11:35:13;;;;;;;1.30;0.90;;;16.20;99.90;;;;;;5113321;28;20197;-76
2023/04/24 11:37:44;;;;;;;2.00;1.90;;;16.30;99.90;;;;;;5113736;28;20168;-77
2023/04/24 11:40:12;;;;;;;1.63;1.53;;;16.50;99.90;;;;;;5113745;28;20613;-75
2023/04/24 11:42:49;;;;;;;1.03;0.90;;;16.30;99.90;;;;;;5113905;28;20182;-75
2023/04/24 11:45:29;;;;;;;0.60;0.60;;;16.10;99.90;;;;;;5113781;28;20207;-76
2023/04/24 11:47:55;;;;;;;0.80;0.80;;;16.00;99.90;;;;;;5113656;28;20282;-75
2023/04/24 11:50:27;;;;;;;0.77;0.77;;;16.10;99.90;;;;;;5113528;28;20174;-75
2023/04/24 11:52:52;;;;;;;0.70;0.70;;;16.00;99.90;;;;;;5112742;28;20575;-76
2023/04/24 11:55:18;;;;;;;1.07;1.07;;;16.00;99.90;;;;;;5093037;28;20215;-76
2023/04/24 11:57:58;;;;;;;2.87;0.80;;;16.00;99.90;;;;;;5074673;28;20174;-75
2023/04/24 12:00:29;;;;;;;0.83;0.83;;;16.10;99.90;;;;;;5092929;28;20257;-74
2023/04/24 12:03:09;;;;;;;1.53;1.00;;;16.30;99.90;;;;;;5092998;28;20170;-75
2023/04/24 12:05:36;;;;;;;0.83;0.83;;;16.40;99.90;;;;;;5093195;28;20534;-75
2023/04/24 12:08:02;;;;;;;0.90;0.90;;;16.40;99.90;;;;;;5074347;28;20297;-74
2023/04/24 12:10:30;;;;;;;2.57;1.00;;;16.40;99.90;;;;;;5095479;28;20718;-76
2023/04/24 12:12:58;;;;;;;0.70;0.70;;;16.50;99.90;;;;;;5096801;28;20166;-75
2023/04/24 12:15:24;;;;;;;0.90;0.90;;;16.50;99.90;;;;;;5093839;28;20622;-77
2023/04/24 12:17:54;;;;;;;1.13;1.03;;;16.40;99.90;;;;;;5093042;28;20174;-75
2023/04/24 12:20:26;;;;;;;2.10;1.47;;;16.50;99.90;;;;;;5092733;28;20174;-78
2023/04/24 12:22:57;;;;;;;1.17;1.10;;;16.50;99.90;;;;;;5094472;28;20189;-75
2023/04/24 12:25:25;;;;;;;1.00;1.00;;;16.40;99.90;;;;;;5113088;28;20188;-76
2023/04/24 12:28:12;;;;;;;1.00;1.00;;;16.50;99.90;;;;;;5112890;28;20301;-75
2023/04/24 12:30:48;;;;;;;0.87;0.87;;;16.60;99.90;;;;;;5113496;28;20204;-76
2023/04/24 12:33:21;;;;;;;0.80;0.80;;;16.80;99.90;;;;;;5109458;28;20182;-77
2023/04/24 12:35:48;;;;;;;1.07;0.80;;;16.90;99.90;;;;;;5092629;28;20162;-76
2023/04/24 12:38:15;;;;;;;1.17;1.00;;;17.20;99.90;;;;;;5074240;28;20190;-77
2023/04/24 12:40:42;;;;;;;1.00;0.80;;;17.40;99.90;;;;;;5092202;28;20735;-75
2023/04/24 12:43:19;;;;;;;0.90;0.87;;;17.70;99.90;;;;;;5095816;28;20189;-74
2023/04/24 12:45:44;;;;;;;0.70;0.70;;;17.80;99.90;;;;;;5112739;28;20213;-75